createdAt,value
2023-02-24T00:02:01.512Z,97874.16
2023-02-24T00:04:31.085Z,97867.88
2023-02-24T00:06:57.740Z,97859.28
2023-02-24T00:09:26.378Z,97859.28
2023-02-24T00:11:59.606Z,97867.69
2023-02-24T00:14:35.267Z,97867.97
2023-02-24T00:17:02.712Z,97872.41
2023-02-24T00:19:32.787Z,97872.22
2023-02-24T00:22:00.160Z,97867.41
2023-02-24T00:24:27.309Z,97863.81
2023-02-24T00:26:59.562Z,97862.81
2023-02-24T00:29:28.265Z,97861.34
2023-02-24T00:32:00.641Z,97860.53
2023-02-24T00:34:28.907Z,97849.47
2023-02-24T00:36:57.412Z,97850.13
2023-02-24T00:39:35.786Z,97853.41
2023-02-24T00:42:06.817Z,97850.44
2023-02-24T00:44:39.523Z,97852.91
2023-02-24T00:47:08.961Z,97847.75
2023-02-24T00:49:36.348Z,97844.16
2023-02-24T00:52:06.671Z,97835.75
2023-02-24T00:54:36.543Z,97836.44
2023-02-24T00:57:03.405Z,97837.34
2023-02-24T00:59:30.227Z,97840.63
2023-02-24T01:01:56.865Z,97840.50
2023-02-24T01:04:23.491Z,97837.72
2023-02-24T01:06:52.578Z,97836.53
2023-02-24T01:09:21.048Z,97837.81
2023-02-24T01:12:07.800Z,97836.56
2023-02-24T01:14:35.648Z,97835.75
2023-02-24T01:17:03.622Z,97842.06
2023-02-24T01:19:32.041Z,97840.84
2023-02-24T01:22:03.808Z,97830.25
2023-02-24T01:24:38.124Z,97829.31
2023-02-24T01:27:07.673Z,97829.44
2023-02-24T01:29:39.569Z,97830.84
2023-02-24T01:32:17.238Z,97826.75
2023-02-24T01:34:44.720Z,97822.81
2023-02-24T01:37:16.687Z,97813.09
2023-02-24T01:39:47.214Z,97812.19
2023-02-24T01:42:17.145Z,97810.56
2023-02-24T01:44:43.791Z,97811.72
2023-02-24T01:47:11.077Z,97810.69
2023-02-24T01:49:43.734Z,97811.75
2023-02-24T01:52:31.607Z,97802.97
2023-02-24T01:55:29.177Z,97800.81
2023-02-24T01:57:56.366Z,97792.72
2023-02-24T02:00:38.322Z,97797.28
2023-02-24T02:03:12.421Z,97793.09
2023-02-24T02:05:40.448Z,97789.91
2023-02-24T02:08:09.166Z,97801.28
2023-02-24T02:10:40.784Z,97796.25
2023-02-24T02:13:07.565Z,97788.34
2023-02-24T02:15:44.262Z,97792.34
2023-02-24T02:18:20.892Z,97788.03
2023-02-24T02:20:59.809Z,97785.00
2023-02-24T02:23:58.574Z,97780.66
2023-02-24T02:26:54.048Z,97781.53
2023-02-24T02:29:35.350Z,97781.16
2023-02-24T02:32:17.360Z,97780.53
2023-02-24T02:34:50.461Z,97777.41
2023-02-24T02:37:37.470Z,97779.22
2023-02-24T02:40:20.044Z,97771.31
2023-02-24T02:42:47.600Z,97770.53
2023-02-24T02:45:20.286Z,97771.53
2023-02-24T02:48:15.394Z,97774.66
2023-02-24T02:50:48.472Z,97763.00
2023-02-24T02:53:19.978Z,97769.84
2023-02-24T02:55:55.780Z,97760.81
2023-02-24T02:58:26.620Z,97753.41
2023-02-24T03:01:02.974Z,97749.50
2023-02-24T03:03:34.182Z,97752.22
2023-02-24T03:06:06.234Z,97754.31
2023-02-24T03:08:37.315Z,97741.78
2023-02-24T03:11:08.504Z,97740.03
2023-02-24T03:13:38.044Z,97734.31
2023-02-24T03:16:06.501Z,97726.88
2023-02-24T03:18:39.581Z,97717.94
2023-02-24T03:21:08.669Z,97727.28
2023-02-24T03:23:47.725Z,97720.84
2023-02-24T03:26:28.307Z,97715.03
2023-02-24T03:28:55.670Z,97717.13
2023-02-24T03:31:49.165Z,97722.75
2023-02-24T03:34:19.875Z,97719.13
2023-02-24T03:36:47.696Z,97721.75
2023-02-24T03:39:15.999Z,97717.84
2023-02-24T03:42:11.914Z,97719.81
2023-02-24T03:44:39.088Z,97716.50
2023-02-24T03:47:06.013Z,97720.94
2023-02-24T03:49:32.971Z,97720.94
2023-02-24T03:52:29.268Z,97720.13
2023-02-24T03:55:09.375Z,97715.88
2023-02-24T03:58:04.309Z,97719.69
2023-02-24T04:00:46.689Z,97716.41
2023-02-24T04:03:28.499Z,97722.66
2023-02-24T04:06:38.707Z,97716.16
2023-02-24T04:09:10.462Z,97718.03
2023-02-24T04:12:17.204Z,97720.31
2023-02-24T04:14:54.898Z,97720.13
2023-02-24T04:17:35.392Z,97718.97
2023-02-24T04:20:13.622Z,97714.75
2023-02-24T04:22:49.056Z,97714.91
2023-02-24T04:25:27.175Z,97711.94
2023-02-24T04:27:58.563Z,97716.50
2023-02-24T04:30:27.656Z,97708.94
2023-02-24T04:32:54.397Z,97708.94
2023-02-24T04:35:22.893Z,97711.22
2023-02-24T04:37:50.906Z,97709.59
2023-02-24T04:40:22.135Z,97708.75
2023-02-24T04:42:50.491Z,97710.25
2023-02-24T04:45:27.851Z,97705.44
2023-02-24T04:48:00.991Z,97702.44
2023-02-24T04:50:34.154Z,97702.03
2023-02-24T04:53:10.010Z,97692.28
2023-02-24T04:55:42.469Z,97691.78
2023-02-24T04:58:13.645Z,97691.59
2023-02-24T05:00:42.027Z,97676.97
2023-02-24T05:03:11.686Z,97677.81
2023-02-24T05:05:38.348Z,97672.53
2023-02-24T05:08:06.949Z,97677.25
2023-02-24T05:10:42.002Z,97655.19
2023-02-24T05:13:11.169Z,97664.00
2023-02-24T05:15:42.384Z,97656.03
2023-02-24T05:18:14.092Z,97653.22
2023-02-24T05:21:02.456Z,97649.94
2023-02-24T05:23:39.399Z,97643.38
2023-02-24T05:26:10.992Z,97637.97
2023-02-24T05:28:40.838Z,97641.75
2023-02-24T05:31:10.103Z,97633.16
2023-02-24T05:33:43.794Z,97638.47
2023-02-24T05:36:15.260Z,97628.28
2023-02-24T05:38:41.919Z,97627.97
2023-02-24T05:41:17.116Z,97624.66
2023-02-24T05:43:53.057Z,97630.56
2023-02-24T05:46:20.732Z,97623.13
2023-02-24T05:48:51.219Z,97625.06
2023-02-24T05:51:18.117Z,97623.56
2023-02-24T05:53:44.771Z,97615.81
2023-02-24T05:56:11.866Z,97622.59
2023-02-24T05:58:39.363Z,97621.16
2023-02-24T06:01:16.296Z,97619.78
2023-02-24T06:03:46.794Z,97627.53
2023-02-24T06:06:16.906Z,97620.66
2023-02-24T06:08:50.087Z,97624.91
2023-02-24T06:11:19.231Z,97621.09
2023-02-24T06:13:50.113Z,97618.19
2023-02-24T06:16:17.646Z,97611.78
2023-02-24T06:18:47.798Z,97615.50
2023-02-24T06:21:14.375Z,97601.34
2023-02-24T06:23:41.519Z,97613.50
2023-02-24T06:26:13.203Z,97610.34
2023-02-24T06:28:43.241Z,97607.25
2023-02-24T06:31:11.073Z,97610.22
2023-02-24T06:33:41.906Z,97615.94
2023-02-24T06:36:08.673Z,97610.34
2023-02-24T06:38:37.085Z,97602.94
2023-02-24T06:41:10.802Z,97609.97
2023-02-24T06:43:43.402Z,97611.59
2023-02-24T06:46:12.532Z,97605.09
2023-02-24T06:48:39.402Z,97606.44
2023-02-24T06:51:06.911Z,97601.31
2023-02-24T06:53:43.119Z,97588.47
2023-02-24T06:56:20.539Z,97590.91
2023-02-24T06:58:52.246Z,97584.41
2023-02-24T07:01:26.789Z,97593.66
2023-02-24T07:04:08.087Z,97596.41
2023-02-24T07:06:38.371Z,97592.81
2023-02-24T07:09:08.168Z,97587.84
2023-02-24T07:11:35.647Z,97588.25
2023-02-24T07:14:05.873Z,97586.34
2023-02-24T07:16:34.666Z,97595.09
2023-02-24T07:19:11.322Z,97588.81
2023-02-24T07:21:43.330Z,97587.97
2023-02-24T07:24:13.483Z,97585.69
2023-02-24T07:26:41.784Z,97583.34
2023-02-24T07:29:11.517Z,97587.56
2023-02-24T07:31:39.058Z,97577.69
2023-02-24T07:34:06.464Z,97582.91
2023-02-24T07:36:38.984Z,97577.56
2023-02-24T07:39:09.680Z,97572.78
2023-02-24T07:41:37.167Z,97571.78
2023-02-24T07:44:03.881Z,97579.44
2023-02-24T07:46:31.513Z,97575.97
2023-02-24T07:49:01.661Z,97577.28
2023-02-24T07:51:29.501Z,97573.88
2023-02-24T07:53:59.153Z,97577.00
2023-02-24T07:56:27.812Z,97574.19
2023-02-24T07:58:59.312Z,97568.94
2023-02-24T08:01:38.972Z,97568.28
2023-02-24T08:04:08.247Z,97562.41
2023-02-24T08:06:45.458Z,97562.19
2023-02-24T08:09:20.540Z,97561.03
2023-02-24T08:11:55.505Z,97555.34
2023-02-24T08:14:24.657Z,97550.22
2023-02-24T08:16:53.371Z,97546.97
2023-02-24T08:19:21.108Z,97549.28
2023-02-24T08:21:52.945Z,97548.03
2023-02-24T08:24:25.343Z,97552.22
2023-02-24T08:27:04.407Z,97547.31
2023-02-24T08:29:40.194Z,97541.97
2023-02-24T08:32:09.482Z,97553.25
2023-02-24T08:34:37.201Z,97553.09
2023-02-24T08:37:04.628Z,97534.88
2023-02-24T08:39:34.184Z,97538.53
2023-02-24T08:42:00.794Z,97533.94
2023-02-24T08:44:27.660Z,97528.38
2023-02-24T08:46:55.436Z,97530.03
2023-02-24T08:49:24.976Z,97527.19
2023-02-24T08:51:53.086Z,97527.22
2023-02-24T08:54:27.423Z,97527.91
2023-02-24T08:57:08.077Z,97524.31
2023-02-24T08:59:41.095Z,97522.56
2023-02-24T09:02:27.277Z,97515.78
2023-02-24T09:05:12.465Z,97518.63
2023-02-24T09:07:41.956Z,97509.88
2023-02-24T09:10:17.790Z,97507.59
2023-02-24T09:12:44.846Z,97514.97
2023-02-24T09:15:15.510Z,97512.03
2023-02-24T09:17:45.669Z,97514.16
2023-02-24T09:20:25.996Z,97511.84
2023-02-24T09:23:07.802Z,97509.72
2023-02-24T09:25:49.639Z,97506.25
2023-02-24T09:28:20.983Z,97509.22
2023-02-24T09:30:54.042Z,97508.19
2023-02-24T09:33:39.103Z,97506.53
2023-02-24T09:36:13.187Z,97503.56
2023-02-24T09:39:00.857Z,97501.09
2023-02-24T09:41:54.529Z,97497.31
2023-02-24T09:44:33.618Z,97492.41
2023-02-24T09:47:09.886Z,97495.56
2023-02-24T09:49:59.102Z,97489.41
2023-02-24T09:52:43.406Z,97485.25
2023-02-24T09:55:26.972Z,97483.59
2023-02-24T09:58:29.317Z,97470.81
2023-02-24T10:01:21.453Z,97474.44
2023-02-24T10:03:51.977Z,97469.06
2023-02-24T10:06:26.815Z,97473.63
2023-02-24T10:09:11.828Z,97477.28
2023-02-24T10:12:04.006Z,97474.94
2023-02-24T10:15:00.071Z,97471.69
2023-02-24T10:17:40.277Z,97468.44
2023-02-24T10:20:28.689Z,97462.94
2023-02-24T10:22:58.218Z,97468.47
2023-02-24T10:25:42.898Z,97467.28
2023-02-24T10:28:36.026Z,97471.22
2023-02-24T10:31:25.709Z,97463.19
2023-02-24T10:34:06.219Z,97459.56
2023-02-24T10:36:36.181Z,97460.41
2023-02-24T10:39:16.047Z,97463.69
2023-02-24T10:41:57.573Z,97455.09
2023-02-24T10:44:36.583Z,97449.81
2023-02-24T10:47:14.295Z,97450.94
2023-02-24T10:49:43.065Z,97448.31
2023-02-24T10:52:29.409Z,97448.63
2023-02-24T10:55:24.263Z,97442.91
2023-02-24T10:58:05.980Z,97446.78
2023-02-24T11:01:04.210Z,97425.72
2023-02-24T11:03:41.777Z,97423.03
2023-02-24T11:06:40.682Z,97412.53
2023-02-24T11:09:19.730Z,97412.22
2023-02-24T11:12:05.344Z,97404.25
2023-02-24T11:14:58.101Z,97402.66
2023-02-24T11:17:28.027Z,97403.97
2023-02-24T11:19:58.494Z,97405.44
2023-02-24T11:22:32.748Z,97404.34
2023-02-24T11:25:05.940Z,97401.63
2023-02-24T11:27:32.889Z,97392.75
2023-02-24T11:30:22.804Z,97387.31
2023-02-24T11:33:14.219Z,97381.69
2023-02-24T11:35:46.926Z,97378.44
2023-02-24T11:38:17.926Z,97362.16
2023-02-24T11:40:48.658Z,97369.38
2023-02-24T11:43:22.368Z,97368.19
2023-02-24T11:46:09.672Z,97368.41
2023-02-24T11:48:43.168Z,97355.56
2023-02-24T11:51:23.661Z,97351.63
2023-02-24T11:54:00.250Z,97340.66
2023-02-24T11:56:28.157Z,97331.78
2023-02-24T11:59:22.398Z,97329.50
2023-02-24T12:02:17.090Z,97322.13
2023-02-24T12:04:52.227Z,97300.81
2023-02-24T12:07:28.490Z,97286.44
2023-02-24T12:10:14.154Z,97275.47
2023-02-24T12:13:02.089Z,97287.06
2023-02-24T12:15:32.073Z,97290.28
2023-02-24T12:18:24.267Z,97278.56
2023-02-24T12:20:56.035Z,97275.31
2023-02-24T12:23:29.649Z,97272.50
2023-02-24T12:26:17.070Z,97266.91
2023-02-24T12:29:08.232Z,97255.22
2023-02-24T12:31:54.394Z,97249.41
2023-02-24T12:34:35.576Z,97243.63
2023-02-24T12:37:22.476Z,97242.84
2023-02-24T12:39:57.158Z,97236.25
2023-02-24T12:42:45.307Z,97234.94
2023-02-24T12:45:34.031Z,97227.69
2023-02-24T12:48:19.333Z,97220.16
2023-02-24T12:50:53.010Z,97212.69
2023-02-24T12:53:23.445Z,97212.34
2023-02-24T12:56:09.437Z,97208.94
2023-02-24T12:58:38.443Z,97199.16
2023-02-24T13:01:24.732Z,97203.09
2023-02-24T13:04:34.649Z,97202.19
2023-02-24T13:07:37.153Z,97212.41
2023-02-24T13:10:30.480Z,97205.94
2023-02-24T13:13:06.469Z,97207.00
2023-02-24T13:15:34.594Z,97208.56
2023-02-24T13:18:01.361Z,97203.97
2023-02-24T13:20:34.551Z,97200.31
2023-02-24T13:23:04.934Z,97188.44
2023-02-24T13:25:34.459Z,97184.06
2023-02-24T13:28:06.460Z,97177.22
2023-02-24T13:30:41.427Z,97183.22
2023-02-24T13:33:17.096Z,97168.19
2023-02-24T13:35:43.844Z,97163.38
2023-02-24T13:38:23.946Z,97162.91
2023-02-24T13:40:50.959Z,97152.97
2023-02-24T13:43:27.469Z,97145.97
2023-02-24T13:46:00.825Z,97142.66
2023-02-24T13:48:47.931Z,97132.69
2023-02-24T13:51:51.585Z,97127.75
2023-02-24T13:54:39.461Z,97135.84
2023-02-24T13:57:18.026Z,97125.66
2023-02-24T13:59:57.722Z,97124.56
2023-02-24T14:02:29.672Z,97116.28
2023-02-24T14:04:58.523Z,97118.72
2023-02-24T14:07:27.995Z,97122.44
2023-02-24T14:09:58.130Z,97117.16
2023-02-24T14:12:30.597Z,97114.53
2023-02-24T14:14:57.864Z,97117.88
2023-02-24T14:17:28.889Z,97117.69
2023-02-24T14:20:08.017Z,97107.59
2023-02-24T14:22:37.563Z,97107.69
2023-02-24T14:25:05.475Z,97107.50
2023-02-24T14:27:32.269Z,97107.31
2023-02-24T14:29:58.870Z,97106.06
2023-02-24T14:32:27.537Z,97097.66
2023-02-24T14:34:54.480Z,97098.75
2023-02-24T14:37:26.539Z,97093.81
2023-02-24T14:40:00.804Z,97088.22
2023-02-24T14:42:28.151Z,97088.56
2023-02-24T14:44:57.560Z,97080.44
2023-02-24T14:47:28.067Z,97078.63
2023-02-24T14:49:59.421Z,97070.25
2023-02-24T14:52:48.387Z,97070.16
2023-02-24T14:55:21.482Z,97058.22
2023-02-24T14:57:56.659Z,97062.66
2023-02-24T15:00:53.716Z,97060.28
2023-02-24T15:03:34.224Z,97055.09
2023-02-24T15:06:06.296Z,97064.09
2023-02-24T15:08:42.711Z,97057.06
2023-02-24T15:11:21.683Z,97052.16
2023-02-24T15:13:50.193Z,97054.81
2023-02-24T15:16:24.307Z,97044.25
2023-02-24T15:19:01.006Z,97040.59
2023-02-24T15:21:47.194Z,97040.03
2023-02-24T15:24:19.077Z,97036.75
2023-02-24T15:27:14.151Z,97032.75
2023-02-24T15:29:42.964Z,97028.06
2023-02-24T15:32:30.853Z,97023.59
2023-02-24T15:35:08.669Z,97018.22
2023-02-24T15:37:42.024Z,97010.03
2023-02-24T15:40:21.724Z,97000.31
2023-02-24T15:43:09.398Z,97017.22
2023-02-24T15:45:38.762Z,97017.94
2023-02-24T15:48:20.377Z,97012.38
2023-02-24T15:50:47.293Z,97008.75
2023-02-24T15:53:14.212Z,97003.19
2023-02-24T15:55:41.962Z,96994.53
2023-02-24T15:58:17.501Z,96995.56
2023-02-24T16:00:45.456Z,96990.00
2023-02-24T16:03:12.592Z,96994.75
2023-02-24T16:09:36.696Z,96986.00
2023-02-24T16:15:17.067Z,96983.78
2023-02-24T16:17:43.943Z,96975.72
2023-02-24T16:20:27.559Z,96977.16
2023-02-24T16:22:56.413Z,96967.34
2023-02-24T16:25:23.781Z,96972.06
2023-02-24T16:27:57.682Z,96975.84
2023-02-24T16:30:30.744Z,96983.94
2023-02-24T16:32:58.890Z,96978.66
2023-02-24T16:35:26.980Z,96980.53
2023-02-24T16:37:54.110Z,96991.19
2023-02-24T16:40:30.970Z,96983.47
2023-02-24T16:42:57.931Z,96984.22
2023-02-24T16:45:29.019Z,96981.00
2023-02-24T16:48:01.897Z,96979.19
2023-02-24T16:50:34.288Z,96978.78
2023-02-24T16:53:01.598Z,96973.66
2023-02-24T16:55:28.257Z,96972.03
2023-02-24T16:57:54.853Z,96954.25
2023-02-24T17:03:01.059Z,96954.91
2023-02-24T17:05:27.619Z,96966.25
2023-02-24T17:07:55.553Z,96956.06
2023-02-24T17:10:22.956Z,96957.53
2023-02-24T17:12:49.460Z,96959.06
2023-02-24T17:15:17.869Z,96967.53
2023-02-24T17:17:44.457Z,96971.28
2023-02-24T17:20:11.808Z,96967.34
2023-02-24T17:22:38.530Z,96973.63
2023-02-24T17:25:05.425Z,96969.28
2023-02-24T17:27:32.044Z,96978.28
2023-02-24T17:29:58.699Z,96977.47
2023-02-24T17:32:25.456Z,96980.44
2023-02-24T17:34:52.184Z,96982.03
2023-02-24T17:37:18.753Z,96978.28
2023-02-24T17:39:45.294Z,96979.25
2023-02-24T17:42:11.850Z,96977.41
2023-02-24T17:44:38.474Z,96980.63
2023-02-24T17:47:06.464Z,96976.63
2023-02-24T17:49:33.023Z,96974.72
2023-02-24T17:51:59.728Z,96983.72
2023-02-24T17:54:26.286Z,96981.91
2023-02-24T17:56:52.811Z,96985.38
2023-02-24T17:59:19.392Z,96977.94
2023-02-24T18:01:45.916Z,96980.44
2023-02-24T18:04:14.864Z,96975.66
2023-02-24T18:06:42.448Z,96973.47
2023-02-24T18:09:08.960Z,96976.25
2023-02-24T18:11:38.600Z,96973.84
2023-02-24T18:14:05.254Z,96979.25
2023-02-24T18:16:31.956Z,96983.06
2023-02-24T18:18:58.590Z,96973.84
2023-02-24T18:21:25.168Z,96974.84
2023-02-24T18:23:52.049Z,96971.72
2023-02-24T18:26:18.621Z,96973.25
2023-02-24T18:28:45.180Z,96974.06
2023-02-24T18:31:16.017Z,96975.16
2023-02-24T18:33:42.753Z,96970.09
2023-02-24T18:36:09.628Z,96972.72
2023-02-24T18:38:36.252Z,96974.06
2023-02-24T18:41:12.879Z,96965.38
2023-02-24T18:43:39.441Z,96977.75
2023-02-24T18:46:06.990Z,96983.78
2023-02-24T18:48:34.356Z,96976.09
2023-02-24T18:51:01.658Z,96977.13
2023-02-24T18:53:29.268Z,96982.00
2023-02-24T18:56:02.332Z,96977.09
2023-02-24T18:58:29.416Z,96981.09
2023-02-24T19:00:55.929Z,96982.75
2023-02-24T19:03:22.628Z,96987.50
2023-02-24T19:05:49.199Z,96993.78
2023-02-24T19:08:15.885Z,96990.84
2023-02-24T19:10:43.749Z,96990.50
2023-02-24T19:13:10.634Z,96980.22
2023-02-24T19:15:38.006Z,96983.63
2023-02-24T19:18:04.614Z,96987.56
2023-02-24T19:20:31.412Z,96982.91
2023-02-24T19:22:58.021Z,96984.00
2023-02-24T19:25:24.562Z,96982.53
2023-02-24T19:27:52.761Z,96992.28
2023-02-24T19:30:19.338Z,96986.53
2023-02-24T19:32:46.087Z,96985.53
2023-02-24T19:35:13.704Z,96988.47
2023-02-24T19:37:40.263Z,96984.03
2023-02-24T19:40:07.067Z,96988.81
2023-02-24T19:42:33.612Z,96984.34
2023-02-24T19:45:00.179Z,96981.78
2023-02-24T19:47:26.707Z,96985.25
2023-02-24T19:49:56.029Z,96991.97
2023-02-24T19:52:22.577Z,96994.44
2023-02-24T19:54:49.119Z,96987.69
2023-02-24T19:57:15.774Z,96997.06
2023-02-24T19:59:44.738Z,96993.44
2023-02-24T20:02:11.261Z,96987.56
2023-02-24T20:04:37.831Z,96978.78
2023-02-24T20:07:04.365Z,96987.22
2023-02-24T20:09:32.294Z,96973.75
2023-02-24T20:12:00.824Z,96974.72
2023-02-24T20:14:28.389Z,96980.63
2023-02-24T20:16:55.158Z,96983.91
2023-02-24T20:19:21.783Z,96978.00
2023-02-24T20:21:48.331Z,96980.94
2023-02-24T20:24:15.884Z,96982.56
2023-02-24T20:26:43.506Z,96985.44
2023-02-24T20:29:11.526Z,96991.50
2023-02-24T20:31:38.574Z,96984.94
2023-02-24T20:34:05.376Z,96987.38
2023-02-24T20:36:31.974Z,96987.59
2023-02-24T20:38:59.083Z,96987.91
2023-02-24T20:41:26.669Z,96999.91
2023-02-24T20:43:53.363Z,96997.13
2023-02-24T20:46:24.937Z,97000.25
2023-02-24T20:48:52.397Z,96998.63
2023-02-24T20:51:19.067Z,96997.44
2023-02-24T20:53:56.670Z,96990.09
2023-02-24T20:56:25.203Z,97017.53
2023-02-24T20:58:52.809Z,97034.28
2023-02-24T21:01:20.713Z,97033.34
2023-02-24T21:03:47.397Z,97037.13
2023-02-24T21:06:14.582Z,97030.84
2023-02-24T21:08:41.124Z,97030.69
2023-02-24T21:11:10.956Z,97036.41
2023-02-24T21:13:41.615Z,97044.53
2023-02-24T21:16:09.466Z,97041.78
2023-02-24T21:18:36.475Z,97028.53
2023-02-24T21:21:03.008Z,97048.31
2023-02-24T21:23:29.632Z,97048.94
2023-02-24T21:25:56.955Z,97064.72
2023-02-24T21:28:23.532Z,97053.06
2023-02-24T21:30:50.204Z,97065.72
2023-02-24T21:33:17.207Z,97069.41
2023-02-24T21:35:43.983Z,97063.13
2023-02-24T21:38:10.805Z,97081.03
2023-02-24T21:40:37.643Z,97077.97
2023-02-24T21:43:04.356Z,97083.56
2023-02-24T21:45:30.920Z,97085.97
2023-02-24T21:47:58.123Z,97080.16
2023-02-24T21:50:24.745Z,97094.06
2023-02-24T21:52:51.372Z,97106.19
2023-02-24T21:55:19.306Z,97099.53
2023-02-24T21:57:45.888Z,97100.78
2023-02-24T22:00:19.989Z,97096.53
2023-02-24T22:02:47.348Z,97109.16
2023-02-24T22:05:16.390Z,97112.31
2023-02-24T22:07:44.252Z,97108.59
2023-02-24T22:10:14.919Z,97106.03
2023-02-24T22:12:41.603Z,97109.75
2023-02-24T22:15:08.848Z,97107.81
2023-02-24T22:17:36.303Z,97105.66
2023-02-24T22:20:04.060Z,97103.03
2023-02-24T22:22:30.640Z,97099.34
2023-02-24T22:24:57.342Z,97113.03
2023-02-24T22:27:25.501Z,97113.03
2023-02-24T22:29:52.108Z,97111.41
2023-02-24T22:32:18.806Z,97117.28
2023-02-24T22:34:45.433Z,97113.03
2023-02-24T22:37:11.998Z,97113.38
2023-02-24T22:39:38.613Z,97107.50
2023-02-24T22:42:05.246Z,97116.63
2023-02-24T22:44:32.175Z,97115.28
2023-02-24T22:46:58.777Z,97120.06
2023-02-24T22:49:25.595Z,97123.00
2023-02-24T22:51:52.195Z,97122.41
2023-02-24T22:54:19.272Z,97120.16
2023-02-24T22:56:45.941Z,97121.56
2023-02-24T22:59:12.620Z,97118.34
2023-02-24T23:01:39.351Z,97121.88
2023-02-24T23:04:07.282Z,97127.63
2023-02-24T23:06:34.349Z,97131.66
2023-02-24T23:09:01.361Z,97142.00
2023-02-24T23:11:29.536Z,97146.09
2023-02-24T23:13:56.748Z,97142.09
2023-02-24T23:16:25.374Z,97137.63
2023-02-24T23:18:53.948Z,97139.59
2023-02-24T23:21:25.041Z,97138.31
2023-02-24T23:23:53.537Z,97153.81
2023-02-24T23:26:20.547Z,97148.44
2023-02-24T23:28:47.332Z,97148.38
2023-02-24T23:31:17.740Z,97149.56
2023-02-24T23:33:44.300Z,97156.78
2023-02-24T23:36:10.938Z,97153.47
2023-02-24T23:38:37.474Z,97144.53
2023-02-24T23:41:07.337Z,97146.28
2023-02-24T23:43:33.864Z,97145.31
2023-02-24T23:46:03.440Z,97149.56
2023-02-24T23:48:30.126Z,97158.22
2023-02-24T23:50:57.427Z,97162.34
2023-02-24T23:53:27.012Z,97167.97
2023-02-24T23:55:53.598Z,97168.03
2023-02-24T23:58:20.224Z,97169.78
